sensor_id;sensor_type;location;lat;lon;timestamp;temperature;humidity
42261;DHT22;27926;48.062;7.474;2023-04-03T00:00:04;5.30;99.90
42261;DHT22;27926;48.062;7.474;2023-04-03T00:02:29;5.30;99.90
42261;DHT22;27926;48.062;7.474;2023-04-03T00:04:53;6.10;99.90
42261;DHT22;27926;48.062;7.474;2023-04-03T00:07:18;5.20;99.90
42261;DHT22;27926;48.062;7.474;2023-04-03T00:09:43;5.20;99.90
42261;DHT22;27926;48.062;7.474;2023-04-03T00:12:07;6.20;99.90
42261;DHT22;27926;48.062;7.474;2023-04-03T00:14:32;5.20;99.90
42261;DHT22;27926;48.062;7.474;2023-04-03T00:16:57;5.10;99.90
42261;DHT22;27926;48.062;7.474;2023-04-03T00:19:21;5.10;99.90
42261;DHT22;27926;48.062;7.474;2023-04-03T00:21:46;5.10;99.90
42261;DHT22;27926;48.062;7.474;2023-04-03T00:24:10;5.10;99.90
42261;DHT22;27926;48.062;7.474;2023-04-03T00:26:35;5.10;99.90
42261;DHT22;27926;48.062;7.474;2023-04-03T00:29:00;5.10;99.90
42261;DHT22;27926;48.062;7.474;2023-04-03T00:31:24;6.00;99.90
42261;DHT22;27926;48.062;7.474;2023-04-03T00:33:49;6.00;99.90
42261;DHT22;27926;48.062;7.474;2023-04-03T00:36:14;5.10;99.90
42261;DHT22;27926;48.062;7.474;2023-04-03T00:38:39;5.00;99.90
42261;DHT22;27926;48.062;7.474;2023-04-03T00:41:04;5.50;99.90
42261;DHT22;27926;48.062;7.474;2023-04-03T00:43:29;5.70;99.90
42261;DHT22;27926;48.062;7.474;2023-04-03T00:45:55;6.10;99.90
42261;DHT22;27926;48.062;7.474;2023-04-03T00:48:23;5.30;99.90
42261;DHT22;27926;48.062;7.474;2023-04-03T00:50:49;5.00;99.90
42261;DHT22;27926;48.062;7.474;2023-04-03T00:53:19;5.00;99.90
42261;DHT22;27926;48.062;7.474;2023-04-03T00:55:47;5.50;99.90
42261;DHT22;27926;48.062;7.474;2023-04-03T00:58:12;5.00;99.90
42261;DHT22;27926;48.062;7.474;2023-04-03T01:00:40;5.00;99.90
42261;DHT22;27926;48.062;7.474;2023-04-03T01:03:07;5.00;99.90
42261;DHT22;27926;48.062;7.474;2023-04-03T01:05:32;5.50;99.90
42261;DHT22;27926;48.062;7.474;2023-04-03T01:07:57;5.00;99.90
42261;DHT22;27926;48.062;7.474;2023-04-03T01:10:22;5.00;99.90
42261;DHT22;27926;48.062;7.474;2023-04-03T01:12:49;5.00;99.90
42261;DHT22;27926;48.062;7.474;2023-04-03T01:15:24;4.90;99.90
42261;DHT22;27926;48.062;7.474;2023-04-03T01:17:57;4.90;99.90
42261;DHT22;27926;48.062;7.474;2023-04-03T01:25:27;4.90;99.90
42261;DHT22;27926;48.062;7.474;2023-04-03T01:27:51;4.90;99.90
42261;DHT22;27926;48.062;7.474;2023-04-03T01:30:19;4.90;99.90
42261;DHT22;27926;48.062;7.474;2023-04-03T01:32:44;4.80;99.90
42261;DHT22;27926;48.062;7.474;2023-04-03T01:35:09;4.80;99.90
42261;DHT22;27926;48.062;7.474;2023-04-03T01:37:34;4.80;99.90
42261;DHT22;27926;48.062;7.474;2023-04-03T01:39:59;4.80;99.90
42261;DHT22;27926;48.062;7.474;2023-04-03T01:42:23;4.80;99.90
42261;DHT22;27926;48.062;7.474;2023-04-03T01:44:48;4.80;99.90
42261;DHT22;27926;48.062;7.474;2023-04-03T01:47:12;4.80;99.90
42261;DHT22;27926;48.062;7.474;2023-04-03T01:49:37;4.80;99.90
42261;DHT22;27926;48.062;7.474;2023-04-03T01:52:01;4.70;99.90
42261;DHT22;27926;48.062;7.474;2023-04-03T01:54:26;4.70;99.90
42261;DHT22;27926;48.062;7.474;2023-04-03T01:56:51;5.40;99.90
42261;DHT22;27926;48.062;7.474;2023-04-03T01:59:15;4.70;99.90
42261;DHT22;27926;48.062;7.474;2023-04-03T02:01:42;4.70;99.90
42261;DHT22;27926;48.062;7.474;2023-04-03T02:04:07;4.60;99.90
42261;DHT22;27926;48.062;7.474;2023-04-03T02:06:32;4.60;99.90
42261;DHT22;27926;48.062;7.474;2023-04-03T02:08:57;4.70;99.90
42261;DHT22;27926;48.062;7.474;2023-04-03T02:11:21;4.60;99.90
42261;DHT22;27926;48.062;7.474;2023-04-03T02:13:46;5.40;99.90
42261;DHT22;27926;48.062;7.474;2023-04-03T02:16:11;4.60;99.90
42261;DHT22;27926;48.062;7.474;2023-04-03T02:18:37;4.60;99.90
42261;DHT22;27926;48.062;7.474;2023-04-03T02:21:01;4.60;99.90
42261;DHT22;27926;48.062;7.474;2023-04-03T02:23:26;4.50;99.90
42261;DHT22;27926;48.062;7.474;2023-04-03T02:25:51;4.60;99.90
42261;DHT22;27926;48.062;7.474;2023-04-03T02:28:15;4.60;99.90
42261;DHT22;27926;48.062;7.474;2023-04-03T02:30:40;4.50;99.90
42261;DHT22;27926;48.062;7.474;2023-04-03T02:33:04;3.50;99.90
42261;DHT22;27926;48.062;7.474;2023-04-03T02:35:29;4.50;99.90
42261;DHT22;27926;48.062;7.474;2023-04-03T02:37:54;4.60;99.90
42261;DHT22;27926;48.062;7.474;2023-04-03T02:40:19;5.70;99.90
42261;DHT22;27926;48.062;7.474;2023-04-03T02:42:44;4.50;99.90
42261;DHT22;27926;48.062;7.474;2023-04-03T02:45:09;4.50;99.90
42261;DHT22;27926;48.062;7.474;2023-04-03T02:47:34;4.50;99.90
42261;DHT22;27926;48.062;7.474;2023-04-03T02:49:59;4.50;99.90
42261;DHT22;27926;48.062;7.474;2023-04-03T02:52:23;4.50;99.90
42261;DHT22;27926;48.062;7.474;2023-04-03T02:54:48;5.10;99.90
42261;DHT22;27926;48.062;7.474;2023-04-03T02:57:12;4.50;99.90
42261;DHT22;27926;48.062;7.474;2023-04-03T02:59:37;4.50;99.90
42261;DHT22;27926;48.062;7.474;2023-04-03T03:02:05;4.50;99.90
42261;DHT22;27926;48.062;7.474;2023-04-03T03:04:30;4.50;99.90
42261;DHT22;27926;48.062;7.474;2023-04-03T03:06:54;4.50;99.90
42261;DHT22;27926;48.062;7.474;2023-04-03T03:09:19;4.50;99.90
42261;DHT22;27926;48.062;7.474;2023-04-03T03:11:43;4.50;99.90
42261;DHT22;27926;48.062;7.474;2023-04-03T03:14:08;4.50;99.90
42261;DHT22;27926;48.062;7.474;2023-04-03T03:16:33;4.50;99.90
42261;DHT22;27926;48.062;7.474;2023-04-03T03:18:58;4.50;99.90
42261;DHT22;27926;48.062;7.474;2023-04-03T03:21:22;5.10;99.90
42261;DHT22;27926;48.062;7.474;2023-04-03T03:23:47;4.50;99.90
42261;DHT22;27926;48.062;7.474;2023-04-03T03:26:12;4.50;99.90
42261;DHT22;27926;48.062;7.474;2023-04-03T03:28:37;4.50;99.90
42261;DHT22;27926;48.062;7.474;2023-04-03T03:31:03;4.50;99.90
42261;DHT22;27926;48.062;7.474;2023-04-03T03:33:28;4.50;99.90
42261;DHT22;27926;48.062;7.474;2023-04-03T03:35:54;4.50;99.90
42261;DHT22;27926;48.062;7.474;2023-04-03T03:38:19;4.40;99.90
42261;DHT22;27926;48.062;7.474;2023-04-03T03:40:43;4.40;99.90
42261;DHT22;27926;48.062;7.474;2023-04-03T03:43:08;4.40;99.90
42261;DHT22;27926;48.062;7.474;2023-04-03T03:45:33;4.40;99.90
42261;DHT22;27926;48.062;7.474;2023-04-03T03:47:58;5.20;99.90
42261;DHT22;27926;48.062;7.474;2023-04-03T03:50:23;4.40;99.90
42261;DHT22;27926;48.062;7.474;2023-04-03T03:52:47;4.40;99.90
42261;DHT22;27926;48.062;7.474;2023-04-03T03:55:12;4.40;99.90
42261;DHT22;27926;48.062;7.474;2023-04-03T03:57:37;4.40;99.90
42261;DHT22;27926;48.062;7.474;2023-04-03T04:00:02;4.40;99.90
42261;DHT22;27926;48.062;7.474;2023-04-03T04:02:27;4.40;99.90
42261;DHT22;27926;48.062;7.474;2023-04-03T04:04:52;4.40;99.90
42261;DHT22;27926;48.062;7.474;2023-04-03T04:07:17;4.40;99.90
42261;DHT22;27926;48.062;7.474;2023-04-03T04:09:41;4.40;99.90
42261;DHT22;27926;48.062;7.474;2023-04-03T04:12:06;4.40;99.90
42261;DHT22;27926;48.062;7.474;2023-04-03T04:14:30;4.40;99.90
42261;DHT22;27926;48.062;7.474;2023-04-03T04:16:55;4.40;99.90
42261;DHT22;27926;48.062;7.474;2023-04-03T04:19:20;4.40;99.90
42261;DHT22;27926;48.062;7.474;2023-04-03T04:21:44;4.40;99.90
42261;DHT22;27926;48.062;7.474;2023-04-03T04:24:10;4.40;99.90
42261;DHT22;27926;48.062;7.474;2023-04-03T04:26:34;4.40;99.90
42261;DHT22;27926;48.062;7.474;2023-04-03T04:28:59;4.40;99.90
42261;DHT22;27926;48.062;7.474;2023-04-03T04:31:24;4.40;99.90
42261;DHT22;27926;48.062;7.474;2023-04-03T04:33:49;5.40;99.90
42261;DHT22;27926;48.062;7.474;2023-04-03T04:36:14;4.30;99.90
42261;DHT22;27926;48.062;7.474;2023-04-03T04:38:39;4.30;99.90
42261;DHT22;27926;48.062;7.474;2023-04-03T04:41:04;4.40;99.90
42261;DHT22;27926;48.062;7.474;2023-04-03T04:43:28;4.40;99.90
42261;DHT22;27926;48.062;7.474;2023-04-03T04:46:11;4.40;99.90
42261;DHT22;27926;48.062;7.474;2023-04-03T04:48:36;4.40;99.90
42261;DHT22;27926;48.062;7.474;2023-04-03T04:51:01;4.30;99.90
42261;DHT22;27926;48.062;7.474;2023-04-03T04:53:28;4.40;99.90
42261;DHT22;27926;48.062;7.474;2023-04-03T04:55:53;4.40;99.90
42261;DHT22;27926;48.062;7.474;2023-04-03T04:58:18;5.70;99.90
42261;DHT22;27926;48.062;7.474;2023-04-03T05:00:43;4.30;99.90
42261;DHT22;27926;48.062;7.474;2023-04-03T05:03:07;4.30;99.90
42261;DHT22;27926;48.062;7.474;2023-04-03T05:05:33;4.30;99.90
42261;DHT22;27926;48.062;7.474;2023-04-03T05:07:58;4.30;99.90
42261;DHT22;27926;48.062;7.474;2023-04-03T05:10:22;4.40;99.90
42261;DHT22;27926;48.062;7.474;2023-04-03T05:12:47;4.30;99.90
42261;DHT22;27926;48.062;7.474;2023-04-03T05:15:12;4.30;99.90
42261;DHT22;27926;48.062;7.474;2023-04-03T05:17:36;4.30;99.90
42261;DHT22;27926;48.062;7.474;2023-04-03T05:20:02;4.30;99.90
42261;DHT22;27926;48.062;7.474;2023-04-03T05:22:27;4.30;99.90
42261;DHT22;27926;48.062;7.474;2023-04-03T05:24:51;4.30;99.90
42261;DHT22;27926;48.062;7.474;2023-04-03T05:27:16;4.30;99.90
42261;DHT22;27926;48.062;7.474;2023-04-03T05:29:41;4.60;99.90
42261;DHT22;27926;48.062;7.474;2023-04-03T05:32:07;4.40;99.90
42261;DHT22;27926;48.062;7.474;2023-04-03T05:34:32;4.20;99.90
42261;DHT22;27926;48.062;7.474;2023-04-03T05:36:57;4.20;99.90
42261;DHT22;27926;48.062;7.474;2023-04-03T05:39:21;4.20;99.90
42261;DHT22;27926;48.062;7.474;2023-04-03T05:41:47;4.20;99.90
42261;DHT22;27926;48.062;7.474;2023-04-03T05:44:13;4.20;99.90
42261;DHT22;27926;48.062;7.474;2023-04-03T05:46:40;4.20;99.90
42261;DHT22;27926;48.062;7.474;2023-04-03T05:49:05;4.20;99.90
42261;DHT22;27926;48.062;7.474;2023-04-03T05:51:35;4.30;99.90
42261;DHT22;27926;48.062;7.474;2023-04-03T05:56:58;4.20;99.90
42261;DHT22;27926;48.062;7.474;2023-04-03T05:59:23;4.30;99.90
42261;DHT22;27926;48.062;7.474;2023-04-03T06:01:48;4.30;99.90
42261;DHT22;27926;48.062;7.474;2023-04-03T06:04:13;4.30;99.90
42261;DHT22;27926;48.062;7.474;2023-04-03T06:06:52;4.30;99.90
42261;DHT22;27926;48.062;7.474;2023-04-03T06:09:18;4.30;99.90
42261;DHT22;27926;48.062;7.474;2023-04-03T06:11:43;4.30;99.90
42261;DHT22;27926;48.062;7.474;2023-04-03T06:14:09;4.30;99.90
42261;DHT22;27926;48.062;7.474;2023-04-03T06:16:34;5.20;99.90
42261;DHT22;27926;48.062;7.474;2023-04-03T06:18:59;4.30;99.90
42261;DHT22;27926;48.062;7.474;2023-04-03T06:21:23;4.30;99.90
42261;DHT22;27926;48.062;7.474;2023-04-03T06:23:48;4.40;99.90
42261;DHT22;27926;48.062;7.474;2023-04-03T06:26:13;4.40;99.90
42261;DHT22;27926;48.062;7.474;2023-04-03T06:28:37;4.40;99.90
42261;DHT22;27926;48.062;7.474;2023-04-03T06:31:02;4.40;99.90
42261;DHT22;27926;48.062;7.474;2023-04-03T06:33:26;5.40;99.90
42261;DHT22;27926;48.062;7.474;2023-04-03T06:35:57;4.40;99.90
42261;DHT22;27926;48.062;7.474;2023-04-03T06:38:22;4.40;99.90
42261;DHT22;27926;48.062;7.474;2023-04-03T06:40:47;4.40;99.90
42261;DHT22;27926;48.062;7.474;2023-04-03T06:43:11;4.50;99.90
42261;DHT22;27926;48.062;7.474;2023-04-03T06:45:36;4.50;99.90
42261;DHT22;27926;48.062;7.474;2023-04-03T06:48:01;4.50;99.90
42261;DHT22;27926;48.062;7.474;2023-04-03T06:50:25;4.60;99.90
42261;DHT22;27926;48.062;7.474;2023-04-03T06:52:50;4.50;99.90
42261;DHT22;27926;48.062;7.474;2023-04-03T06:55:15;4.60;99.90
42261;DHT22;27926;48.062;7.474;2023-04-03T06:57:39;4.60;99.90
42261;DHT22;27926;48.062;7.474;2023-04-03T07:00:05;4.50;99.90
42261;DHT22;27926;48.062;7.474;2023-04-03T07:02:30;4.60;99.90
42261;DHT22;27926;48.062;7.474;2023-04-03T07:04:54;4.50;99.90
42261;DHT22;27926;48.062;7.474;2023-04-03T07:07:19;5.60;99.90
42261;DHT22;27926;48.062;7.474;2023-04-03T07:09:44;4.50;99.90
42261;DHT22;27926;48.062;7.474;2023-04-03T07:12:09;4.50;99.90
42261;DHT22;27926;48.062;7.474;2023-04-03T07:14:33;5.10;99.90
42261;DHT22;27926;48.062;7.474;2023-04-03T07:16:58;5.20;99.90
42261;DHT22;27926;48.062;7.474;2023-04-03T07:19:22;4.70;99.90
42261;DHT22;27926;48.062;7.474;2023-04-03T07:21:48;4.80;99.90
42261;DHT22;27926;48.062;7.474;2023-04-03T07:24:13;5.20;99.90
42261;DHT22;27926;48.062;7.474;2023-04-03T07:26:39;4.90;99.90
42261;DHT22;27926;48.062;7.474;2023-04-03T07:29:03;4.90;99.90
42261;DHT22;27926;48.062;7.474;2023-04-03T07:31:29;5.00;99.90
42261;DHT22;27926;48.062;7.474;2023-04-03T07:33:54;5.00;99.90
42261;DHT22;27926;48.062;7.474;2023-04-03T07:36:21;5.00;99.90
42261;DHT22;27926;48.062;7.474;2023-04-03T07:38:46;5.30;99.90
42261;DHT22;27926;48.062;7.474;2023-04-03T07:41:18;5.10;99.90
42261;DHT22;27926;48.062;7.474;2023-04-03T07:43:44;5.20;99.90
42261;DHT22;27926;48.062;7.474;2023-04-03T07:46:09;5.40;99.90
42261;DHT22;27926;48.062;7.474;2023-04-03T07:48:34;6.30;99.90
42261;DHT22;27926;48.062;7.474;2023-04-03T07:51:00;5.50;99.90
42261;DHT22;27926;48.062;7.474;2023-04-03T07:53:26;5.50;99.90
42261;DHT22;27926;48.062;7.474;2023-04-03T07:55:50;5.60;99.90
42261;DHT22;27926;48.062;7.474;2023-04-03T07:58:19;5.70;99.90
42261;DHT22;27926;48.062;7.474;2023-04-03T08:00:44;5.80;99.90
42261;DHT22;27926;48.062;7.474;2023-04-03T08:03:10;5.90;99.90
42261;DHT22;27926;48.062;7.474;2023-04-03T08:05:42;6.30;99.90
42261;DHT22;27926;48.062;7.474;2023-04-03T08:08:07;6.30;99.90
42261;DHT22;27926;48.062;7.474;2023-04-03T08:10:33;6.40;99.90
42261;DHT22;27926;48.062;7.474;2023-04-03T08:12:58;6.60;99.90
42261;DHT22;27926;48.062;7.474;2023-04-03T08:15:23;7.20;99.90
42261;DHT22;27926;48.062;7.474;2023-04-03T08:17:48;7.80;99.90
42261;DHT22;27926;48.062;7.474;2023-04-03T08:20:12;7.00;99.90
42261;DHT22;27926;48.062;7.474;2023-04-03T08:22:37;6.90;99.90
42261;DHT22;27926;48.062;7.474;2023-04-03T08:25:02;6.90;99.90
42261;DHT22;27926;48.062;7.474;2023-04-03T08:27:27;7.10;99.90
42261;DHT22;27926;48.062;7.474;2023-04-03T08:29:52;7.30;99.90
42261;DHT22;27926;48.062;7.474;2023-04-03T08:32:17;7.60;99.90
42261;DHT22;27926;48.062;7.474;2023-04-03T08:34:42;7.80;99.90
42261;DHT22;27926;48.062;7.474;2023-04-03T08:37:06;7.80;99.90
42261;DHT22;27926;48.062;7.474;2023-04-03T08:39:31;7.90;99.90
42261;DHT22;27926;48.062;7.474;2023-04-03T08:41:58;7.40;99.90
42261;DHT22;27926;48.062;7.474;2023-04-03T08:49:40;7.90;99.90
42261;DHT22;27926;48.062;7.474;2023-04-03T08:52:16;8.00;99.90
42261;DHT22;27926;48.062;7.474;2023-04-03T08:54:55;7.70;99.90
42261;DHT22;27926;48.062;7.474;2023-04-03T08:57:36;7.60;99.90
42261;DHT22;27926;48.062;7.474;2023-04-03T09:00:09;7.40;99.90
42261;DHT22;27926;48.062;7.474;2023-04-03T09:02:52;7.60;99.90
42261;DHT22;27926;48.062;7.474;2023-04-03T09:05:18;7.90;99.90
42261;DHT22;27926;48.062;7.474;2023-04-03T09:07:46;8.30;98.80
42261;DHT22;27926;48.062;7.474;2023-04-03T09:10:14;8.60;97.70
42261;DHT22;27926;48.062;7.474;2023-04-03T09:12:43;8.20;96.60
42261;DHT22;27926;48.062;7.474;2023-04-03T09:15:25;8.10;96.80
42261;DHT22;27926;48.062;7.474;2023-04-03T09:26:25;9.10;97.20
42261;DHT22;27926;48.062;7.474;2023-04-03T09:28:57;9.20;95.60
42261;DHT22;27926;48.062;7.474;2023-04-03T09:31:25;8.70;94.80
42261;DHT22;27926;48.062;7.474;2023-04-03T09:34:37;8.30;95.90
42261;DHT22;27926;48.062;7.474;2023-04-03T09:36:48;8.00;95.00
42261;DHT22;27926;48.062;7.474;2023-04-03T09:39:15;8.20;96.80
42261;DHT22;27926;48.062;7.474;2023-04-03T09:41:40;8.20;97.00
42261;DHT22;27926;48.062;7.474;2023-04-03T09:44:24;8.30;96.50
42261;DHT22;27926;48.062;7.474;2023-04-03T09:46:49;8.80;96.10
42261;DHT22;27926;48.062;7.474;2023-04-03T09:49:14;8.60;94.90
42261;DHT22;27926;48.062;7.474;2023-04-03T09:51:39;8.60;95.30
42261;DHT22;27926;48.062;7.474;2023-04-03T09:54:26;8.00;96.30
42261;DHT22;27926;48.062;7.474;2023-04-03T09:56:52;7.80;96.10
42261;DHT22;27926;48.062;7.474;2023-04-03T09:59:17;8.10;96.30
42261;DHT22;27926;48.062;7.474;2023-04-03T10:01:56;8.00;96.60
42261;DHT22;27926;48.062;7.474;2023-04-03T10:04:21;8.60;97.00
42261;DHT22;27926;48.062;7.474;2023-04-03T10:09:19;8.90;97.00
42261;DHT22;27926;48.062;7.474;2023-04-03T10:14:29;9.10;97.30
42261;DHT22;27926;48.062;7.474;2023-04-03T10:17:02;9.40;96.50
42261;DHT22;27926;48.062;7.474;2023-04-03T10:25:00;9.80;96.50
42261;DHT22;27926;48.062;7.474;2023-04-03T10:30:44;9.40;95.20
42261;DHT22;27926;48.062;7.474;2023-04-03T10:39:19;8.80;94.60
42261;DHT22;27926;48.062;7.474;2023-04-03T10:47:18;8.80;95.20
42261;DHT22;27926;48.062;7.474;2023-04-03T10:52:50;9.30;93.80
42261;DHT22;27926;48.062;7.474;2023-04-03T10:55:13;9.20;93.60
42261;DHT22;27926;48.062;7.474;2023-04-03T10:57:43;9.10;94.80
42261;DHT22;27926;48.062;7.474;2023-04-03T11:00:36;9.20;94.70
42261;DHT22;27926;48.062;7.474;2023-04-03T11:03:49;9.20;94.60
42261;DHT22;27926;48.062;7.474;2023-04-03T11:06:19;9.20;94.90
42261;DHT22;27926;48.062;7.474;2023-04-03T11:08:55;9.10;93.80
42261;DHT22;27926;48.062;7.474;2023-04-03T11:11:25;9.30;94.60
42261;DHT22;27926;48.062;7.474;2023-04-03T11:14:25;9.40;93.80
42261;DHT22;27926;48.062;7.474;2023-04-03T11:17:04;9.30;94.60
42261;DHT22;27926;48.062;7.474;2023-04-03T11:25:23;9.10;94.20
42261;DHT22;27926;48.062;7.474;2023-04-03T11:27:56;9.00;94.30
42261;DHT22;27926;48.062;7.474;2023-04-03T11:33:43;9.60;95.10
42261;DHT22;27926;48.062;7.474;2023-04-03T11:37:06;9.40;94.20
42261;DHT22;27926;48.062;7.474;2023-04-03T11:39:25;9.30;94.00
42261;DHT22;27926;48.062;7.474;2023-04-03T11:41:50;9.20;94.00
42261;DHT22;27926;48.062;7.474;2023-04-03T11:44:35;9.20;93.30
42261;DHT22;27926;48.062;7.474;2023-04-03T11:47:07;9.10;93.50
42261;DHT22;27926;48.062;7.474;2023-04-03T11:58:04;9.20;94.20
42261;DHT22;27926;48.062;7.474;2023-04-03T12:08:44;9.40;93.70
42261;DHT22;27926;48.062;7.474;2023-04-03T12:16:46;9.40;92.60
42261;DHT22;27926;48.062;7.474;2023-04-03T12:32:07;9.60;93.70
42261;DHT22;27926;48.062;7.474;2023-04-03T12:46:04;9.50;91.80
42261;DHT22;27926;48.062;7.474;2023-04-03T12:51:21;9.60;92.70
42261;DHT22;27926;48.062;7.474;2023-04-03T12:53:47;9.60;92.00
42261;DHT22;27926;48.062;7.474;2023-04-03T12:58:43;9.70;91.90
42261;DHT22;27926;48.062;7.474;2023-04-03T13:03:32;9.70;92.70
42261;DHT22;27926;48.062;7.474;2023-04-03T13:06:00;9.70;92.20
42261;DHT22;27926;48.062;7.474;2023-04-03T13:08:26;9.50;91.50
42261;DHT22;27926;48.062;7.474;2023-04-03T13:11:01;9.50;92.80
42261;DHT22;27926;48.062;7.474;2023-04-03T13:13:27;9.60;92.00
42261;DHT22;27926;48.062;7.474;2023-04-03T13:15:52;9.70;91.50
42261;DHT22;27926;48.062;7.474;2023-04-03T13:18:31;9.70;91.50
42261;DHT22;27926;48.062;7.474;2023-04-03T13:21:00;9.70;91.90
42261;DHT22;27926;48.062;7.474;2023-04-03T13:23:26;9.60;92.60
42261;DHT22;27926;48.062;7.474;2023-04-03T13:25:50;9.90;92.80
42261;DHT22;27926;48.062;7.474;2023-04-03T13:28:26;10.10;92.00
42261;DHT22;27926;48.062;7.474;2023-04-03T13:31:21;9.90;91.80
42261;DHT22;27926;48.062;7.474;2023-04-03T13:34:02;9.90;91.30
42261;DHT22;27926;48.062;7.474;2023-04-03T13:36:31;9.70;91.80
42261;DHT22;27926;48.062;7.474;2023-04-03T13:39:06;9.60;91.30
42261;DHT22;27926;48.062;7.474;2023-04-03T13:41:34;9.70;91.50
42261;DHT22;27926;48.062;7.474;2023-04-03T13:44:29;9.80;91.50
42261;DHT22;27926;48.062;7.474;2023-04-03T13:46:56;9.80;91.20
42261;DHT22;27926;48.062;7.474;2023-04-03T13:49:35;9.70;91.90
42261;DHT22;27926;48.062;7.474;2023-04-03T13:52:17;9.40;91.30
42261;DHT22;27926;48.062;7.474;2023-04-03T13:54:53;9.40;92.10
42261;DHT22;27926;48.062;7.474;2023-04-03T13:57:18;9.40;90.80
42261;DHT22;27926;48.062;7.474;2023-04-03T13:59:43;9.60;90.50
42261;DHT22;27926;48.062;7.474;2023-04-03T14:04:46;9.40;90.40
42261;DHT22;27926;48.062;7.474;2023-04-03T14:07:13;9.40;90.60
42261;DHT22;27926;48.062;7.474;2023-04-03T14:09:39;9.40;90.30
42261;DHT22;27926;48.062;7.474;2023-04-03T14:12:12;9.30;90.60
42261;DHT22;27926;48.062;7.474;2023-04-03T14:14:37;9.40;91.50
42261;DHT22;27926;48.062;7.474;2023-04-03T14:17:15;9.20;91.20
42261;DHT22;27926;48.062;7.474;2023-04-03T14:19:40;9.20;92.20
42261;DHT22;27926;48.062;7.474;2023-04-03T14:22:19;9.20;91.90
42261;DHT22;27926;48.062;7.474;2023-04-03T14:24:45;9.10;91.90
42261;DHT22;27926;48.062;7.474;2023-04-03T14:27:16;9.10;92.10
42261;DHT22;27926;48.062;7.474;2023-04-03T14:29:41;9.30;92.40
42261;DHT22;27926;48.062;7.474;2023-04-03T14:32:06;9.20;91.70
42261;DHT22;27926;48.062;7.474;2023-04-03T14:34:30;9.20;92.30
42261;DHT22;27926;48.062;7.474;2023-04-03T14:36:55;9.20;91.90
42261;DHT22;27926;48.062;7.474;2023-04-03T14:39:19;9.20;92.50
42261;DHT22;27926;48.062;7.474;2023-04-03T14:41:44;9.10;92.10
42261;DHT22;27926;48.062;7.474;2023-04-03T14:44:09;9.00;92.30
42261;DHT22;27926;48.062;7.474;2023-04-03T14:46:40;9.20;92.20
42261;DHT22;27926;48.062;7.474;2023-04-03T14:49:21;9.00;91.80
42261;DHT22;27926;48.062;7.474;2023-04-03T14:51:46;8.90;91.90
42261;DHT22;27926;48.062;7.474;2023-04-03T14:54:14;8.90;91.20
42261;DHT22;27926;48.062;7.474;2023-04-03T14:56:39;9.00;92.20
42261;DHT22;27926;48.062;7.474;2023-04-03T14:59:05;8.70;92.40
42261;DHT22;27926;48.062;7.474;2023-04-03T15:01:34;8.80;92.00
42261;DHT22;27926;48.062;7.474;2023-04-03T15:03:58;8.70;92.00
42261;DHT22;27926;48.062;7.474;2023-04-03T15:06:23;8.90;91.70
42261;DHT22;27926;48.062;7.474;2023-04-03T15:08:49;8.80;92.10
42261;DHT22;27926;48.062;7.474;2023-04-03T15:11:14;8.70;91.90
42261;DHT22;27926;48.062;7.474;2023-04-03T15:13:39;8.70;91.90
42261;DHT22;27926;48.062;7.474;2023-04-03T15:16:15;8.70;92.10
42261;DHT22;27926;48.062;7.474;2023-04-03T15:18:40;8.60;91.50
42261;DHT22;27926;48.062;7.474;2023-04-03T15:21:05;8.60;92.50
42261;DHT22;27926;48.062;7.474;2023-04-03T15:23:30;8.80;93.70
42261;DHT22;27926;48.062;7.474;2023-04-03T15:25:55;8.60;93.20
42261;DHT22;27926;48.062;7.474;2023-04-03T15:28:35;8.40;94.60
42261;DHT22;27926;48.062;7.474;2023-04-03T15:31:00;8.40;94.00
42261;DHT22;27926;48.062;7.474;2023-04-03T15:33:25;8.40;93.80
42261;DHT22;27926;48.062;7.474;2023-04-03T15:35:50;8.50;93.60
42261;DHT22;27926;48.062;7.474;2023-04-03T15:38:15;8.60;93.50
42261;DHT22;27926;48.062;7.474;2023-04-03T15:40:39;8.60;93.40
42261;DHT22;27926;48.062;7.474;2023-04-03T15:43:05;8.70;93.60
42261;DHT22;27926;48.062;7.474;2023-04-03T15:45:30;8.50;92.50
42261;DHT22;27926;48.062;7.474;2023-04-03T15:47:55;8.50;92.90
42261;DHT22;27926;48.062;7.474;2023-04-03T15:50:20;8.40;92.80
42261;DHT22;27926;48.062;7.474;2023-04-03T15:52:47;8.40;92.80
42261;DHT22;27926;48.062;7.474;2023-04-03T15:55:12;8.30;93.10
42261;DHT22;27926;48.062;7.474;2023-04-03T15:57:37;8.30;93.80
42261;DHT22;27926;48.062;7.474;2023-04-03T16:00:02;8.20;94.20
42261;DHT22;27926;48.062;7.474;2023-04-03T16:02:27;8.20;94.20
42261;DHT22;27926;48.062;7.474;2023-04-03T16:04:51;8.20;93.70
42261;DHT22;27926;48.062;7.474;2023-04-03T16:07:16;8.30;94.50
42261;DHT22;27926;48.062;7.474;2023-04-03T16:09:41;8.30;93.70
42261;DHT22;27926;48.062;7.474;2023-04-03T16:12:05;8.10;93.60
42261;DHT22;27926;48.062;7.474;2023-04-03T16:14:30;8.10;94.50
42261;DHT22;27926;48.062;7.474;2023-04-03T16:16:55;8.30;94.50
42261;DHT22;27926;48.062;7.474;2023-04-03T16:19:20;8.00;94.50
42261;DHT22;27926;48.062;7.474;2023-04-03T16:21:45;8.00;93.70
42261;DHT22;27926;48.062;7.474;2023-04-03T16:24:10;8.00;93.50
42261;DHT22;27926;48.062;7.474;2023-04-03T16:26:35;8.00;93.00
42261;DHT22;27926;48.062;7.474;2023-04-03T16:29:00;8.00;93.80
42261;DHT22;27926;48.062;7.474;2023-04-03T16:31:25;8.10;94.80
42261;DHT22;27926;48.062;7.474;2023-04-03T16:33:50;8.00;94.00
42261;DHT22;27926;48.062;7.474;2023-04-03T16:36:15;8.00;93.90
42261;DHT22;27926;48.062;7.474;2023-04-03T16:38:40;8.20;94.00
42261;DHT22;27926;48.062;7.474;2023-04-03T16:41:04;7.90;94.10
42261;DHT22;27926;48.062;7.474;2023-04-03T16:43:29;7.80;94.10
42261;DHT22;27926;48.062;7.474;2023-04-03T16:45:54;7.80;94.10
42261;DHT22;27926;48.062;7.474;2023-04-03T16:48:18;7.80;94.00
42261;DHT22;27926;48.062;7.474;2023-04-03T16:50:47;7.90;94.00
42261;DHT22;27926;48.062;7.474;2023-04-03T16:53:12;7.60;94.10
42261;DHT22;27926;48.062;7.474;2023-04-03T16:55:37;7.60;94.20
42261;DHT22;27926;48.062;7.474;2023-04-03T16:58:01;7.60;94.40
42261;DHT22;27926;48.062;7.474;2023-04-03T17:00:27;7.50;94.90
42261;DHT22;27926;48.062;7.474;2023-04-03T17:02:51;7.50;94.80
42261;DHT22;27926;48.062;7.474;2023-04-03T17:05:16;7.60;94.20
42261;DHT22;27926;48.062;7.474;2023-04-03T17:07:40;7.50;93.20
42261;DHT22;27926;48.062;7.474;2023-04-03T17:10:06;7.60;93.60
42261;DHT22;27926;48.062;7.474;2023-04-03T17:12:33;7.50;92.70
42261;DHT22;27926;48.062;7.474;2023-04-03T17:14:58;7.50;92.80
42261;DHT22;27926;48.062;7.474;2023-04-03T17:17:24;7.60;93.20
42261;DHT22;27926;48.062;7.474;2023-04-03T17:19:50;7.80;93.20
42261;DHT22;27926;48.062;7.474;2023-04-03T17:22:15;7.50;93.30
42261;DHT22;27926;48.062;7.474;2023-04-03T17:24:40;7.40;93.60
42261;DHT22;27926;48.062;7.474;2023-04-03T17:27:05;7.60;94.10
42261;DHT22;27926;48.062;7.474;2023-04-03T17:29:30;7.50;93.10
42261;DHT22;27926;48.062;7.474;2023-04-03T17:31:54;7.50;93.10
42261;DHT22;27926;48.062;7.474;2023-04-03T17:34:19;7.30;93.50
42261;DHT22;27926;48.062;7.474;2023-04-03T17:36:45;7.30;93.60
42261;DHT22;27926;48.062;7.474;2023-04-03T17:39:10;8.00;94.40